sensor_id;sensor_type;location;lat;lon;timestamp;P1;durP1;ratioP1;P2;durP2;ratioP2
60292;SDS011;52402;52.670;6.750;2023-07-28T00:01:30;0.40;;;0.40;;
60292;SDS011;52402;52.670;6.750;2023-07-28T00:03:56;0.38;;;0.38;;
60292;SDS011;52402;52.670;6.750;2023-07-28T00:06:22;0.30;;;0.30;;
60292;SDS011;52402;52.670;6.750;2023-07-28T00:08:48;0.30;;;0.30;;
60292;SDS011;52402;52.670;6.750;2023-07-28T00:11:14;0.40;;;0.40;;
60292;SDS011;52402;52.670;6.750;2023-07-28T00:13:41;0.50;;;0.50;;
60292;SDS011;52402;52.670;6.750;2023-07-28T00:16:08;0.35;;;0.35;;
60292;SDS011;52402;52.670;6.750;2023-07-28T00:18:34;0.45;;;0.45;;
60292;SDS011;52402;52.670;6.750;2023-07-28T00:21:07;0.38;;;0.38;;
60292;SDS011;52402;52.670;6.750;2023-07-28T00:23:33;0.38;;;0.38;;
60292;SDS011;52402;52.670;6.750;2023-07-28T00:25:59;0.40;;;0.40;;
60292;SDS011;52402;52.670;6.750;2023-07-28T00:28:25;0.32;;;0.32;;
60292;SDS011;52402;52.670;6.750;2023-07-28T00:30:50;0.38;;;0.38;;
60292;SDS011;52402;52.670;6.750;2023-07-28T00:33:16;0.40;;;0.40;;
60292;SDS011;52402;52.670;6.750;2023-07-28T00:35:42;0.40;;;0.40;;
60292;SDS011;52402;52.670;6.750;2023-07-28T00:38:08;0.40;;;0.40;;
60292;SDS011;52402;52.670;6.750;2023-07-28T00:40:34;0.40;;;0.40;;
60292;SDS011;52402;52.670;6.750;2023-07-28T00:43:01;0.40;;;0.40;;
60292;SDS011;52402;52.670;6.750;2023-07-28T00:45:26;0.32;;;0.32;;
60292;SDS011;52402;52.670;6.750;2023-07-28T00:47:54;0.40;;;0.40;;
60292;SDS011;52402;52.670;6.750;2023-07-28T00:50:22;0.40;;;0.40;;
60292;SDS011;52402;52.670;6.750;2023-07-28T00:52:49;0.50;;;0.50;;
60292;SDS011;52402;52.670;6.750;2023-07-28T00:55:16;0.40;;;0.40;;
60292;SDS011;52402;52.670;6.750;2023-07-28T00:57:41;0.40;;;0.40;;
60292;SDS011;52402;52.670;6.750;2023-07-28T01:00:07;0.40;;;0.40;;
60292;SDS011;52402;52.670;6.750;2023-07-28T01:02:34;0.30;;;0.30;;
60292;SDS011;52402;52.670;6.750;2023-07-28T01:05:00;0.40;;;0.40;;
60292;SDS011;52402;52.670;6.750;2023-07-28T01:07:34;0.40;;;0.40;;
60292;SDS011;52402;52.670;6.750;2023-07-28T01:10:11;0.40;;;0.40;;
60292;SDS011;52402;52.670;6.750;2023-07-28T01:12:39;0.40;;;0.40;;
60292;SDS011;52402;52.670;6.750;2023-07-28T01:15:06;0.30;;;0.30;;
60292;SDS011;52402;52.670;6.750;2023-07-28T01:17:32;0.40;;;0.40;;
60292;SDS011;52402;52.670;6.750;2023-07-28T01:19:57;0.40;;;0.40;;
60292;SDS011;52402;52.670;6.750;2023-07-28T01:22:35;0.30;;;0.30;;
60292;SDS011;52402;52.670;6.750;2023-07-28T01:25:18;0.32;;;0.32;;
60292;SDS011;52402;52.670;6.750;2023-07-28T01:28:04;0.40;;;0.40;;
60292;SDS011;52402;52.670;6.750;2023-07-28T01:30:31;0.30;;;0.30;;
60292;SDS011;52402;52.670;6.750;2023-07-28T01:32:58;0.30;;;0.30;;
60292;SDS011;52402;52.670;6.750;2023-07-28T01:35:24;0.40;;;0.40;;
60292;SDS011;52402;52.670;6.750;2023-07-28T01:37:50;0.40;;;0.40;;
60292;SDS011;52402;52.670;6.750;2023-07-28T01:40:18;0.40;;;0.40;;
60292;SDS011;52402;52.670;6.750;2023-07-28T01:42:44;0.40;;;0.40;;
60292;SDS011;52402;52.670;6.750;2023-07-28T01:45:10;0.35;;;0.35;;
60292;SDS011;52402;52.670;6.750;2023-07-28T01:47:35;0.38;;;0.38;;
60292;SDS011;52402;52.670;6.750;2023-07-28T01:50:01;0.40;;;0.40;;
60292;SDS011;52402;52.670;6.750;2023-07-28T01:52:27;0.30;;;0.30;;
60292;SDS011;52402;52.670;6.750;2023-07-28T01:54:52;0.30;;;0.30;;
60292;SDS011;52402;52.670;6.750;2023-07-28T01:57:18;0.40;;;0.40;;
60292;SDS011;52402;52.670;6.750;2023-07-28T01:59:44;0.30;;;0.30;;
60292;SDS011;52402;52.670;6.750;2023-07-28T02:02:09;0.40;;;0.40;;
60292;SDS011;52402;52.670;6.750;2023-07-28T02:04:35;0.40;;;0.40;;
60292;SDS011;52402;52.670;6.750;2023-07-28T02:07:00;0.30;;;0.30;;
60292;SDS011;52402;52.670;6.750;2023-07-28T02:09:26;0.40;;;0.40;;
60292;SDS011;52402;52.670;6.750;2023-07-28T02:11:52;0.40;;;0.40;;
60292;SDS011;52402;52.670;6.750;2023-07-28T02:14:17;0.40;;;0.40;;
60292;SDS011;52402;52.670;6.750;2023-07-28T02:16:43;0.40;;;0.40;;
60292;SDS011;52402;52.670;6.750;2023-07-28T02:19:09;0.40;;;0.40;;
60292;SDS011;52402;52.670;6.750;2023-07-28T02:21:34;0.40;;;0.40;;
60292;SDS011;52402;52.670;6.750;2023-07-28T02:24:00;0.40;;;0.40;;
60292;SDS011;52402;52.670;6.750;2023-07-28T02:26:26;0.32;;;0.32;;
60292;SDS011;52402;52.670;6.750;2023-07-28T02:28:51;0.38;;;0.38;;
60292;SDS011;52402;52.670;6.750;2023-07-28T02:31:17;0.40;;;0.40;;
60292;SDS011;52402;52.670;6.750;2023-07-28T02:33:43;0.30;;;0.30;;
60292;SDS011;52402;52.670;6.750;2023-07-28T02:36:09;0.40;;;0.40;;
60292;SDS011;52402;52.670;6.750;2023-07-28T02:38:35;0.40;;;0.40;;
60292;SDS011;52402;52.670;6.750;2023-07-28T02:41:01;0.40;;;0.40;;
60292;SDS011;52402;52.670;6.750;2023-07-28T02:43:28;0.40;;;0.40;;
60292;SDS011;52402;52.670;6.750;2023-07-28T02:45:55;0.40;;;0.40;;
60292;SDS011;52402;52.670;6.750;2023-07-28T02:48:25;0.40;;;0.40;;
60292;SDS011;52402;52.670;6.750;2023-07-28T02:50:51;0.50;;;0.50;;
60292;SDS011;52402;52.670;6.750;2023-07-28T02:53:17;0.40;;;0.40;;
60292;SDS011;52402;52.670;6.750;2023-07-28T02:55:43;0.40;;;0.40;;
60292;SDS011;52402;52.670;6.750;2023-07-28T02:58:10;0.40;;;0.40;;
60292;SDS011;52402;52.670;6.750;2023-07-28T03:00:39;0.40;;;0.40;;
60292;SDS011;52402;52.670;6.750;2023-07-28T03:03:07;0.40;;;0.40;;
60292;SDS011;52402;52.670;6.750;2023-07-28T03:05:35;0.40;;;0.40;;
60292;SDS011;52402;52.670;6.750;2023-07-28T03:08:01;0.40;;;0.40;;
60292;SDS011;52402;52.670;6.750;2023-07-28T03:10:27;0.40;;;0.40;;
60292;SDS011;52402;52.670;6.750;2023-07-28T03:12:53;0.30;;;0.30;;
60292;SDS011;52402;52.670;6.750;2023-07-28T03:15:19;0.50;;;0.50;;
60292;SDS011;52402;52.670;6.750;2023-07-28T03:17:47;0.40;;;0.40;;
60292;SDS011;52402;52.670;6.750;2023-07-28T03:20:13;0.40;;;0.40;;
60292;SDS011;52402;52.670;6.750;2023-07-28T03:22:38;0.40;;;0.40;;
60292;SDS011;52402;52.670;6.750;2023-07-28T03:25:04;0.40;;;0.40;;
60292;SDS011;52402;52.670;6.750;2023-07-28T03:27:30;0.40;;;0.40;;
60292;SDS011;52402;52.670;6.750;2023-07-28T03:29:56;0.40;;;0.40;;
60292;SDS011;52402;52.670;6.750;2023-07-28T03:32:21;0.40;;;0.40;;
60292;SDS011;52402;52.670;6.750;2023-07-28T03:34:47;0.47;;;0.47;;
60292;SDS011;52402;52.670;6.750;2023-07-28T03:37:12;0.40;;;0.40;;
60292;SDS011;52402;52.670;6.750;2023-07-28T03:39:38;0.30;;;0.30;;
60292;SDS011;52402;52.670;6.750;2023-07-28T03:42:04;0.40;;;0.40;;
60292;SDS011;52402;52.670;6.750;2023-07-28T03:44:30;0.40;;;0.40;;
60292;SDS011;52402;52.670;6.750;2023-07-28T03:46:56;0.50;;;0.50;;
60292;SDS011;52402;52.670;6.750;2023-07-28T03:49:21;0.50;;;0.50;;
60292;SDS011;52402;52.670;6.750;2023-07-28T03:51:47;0.40;;;0.40;;
60292;SDS011;52402;52.670;6.750;2023-07-28T03:54:12;0.45;;;0.45;;
60292;SDS011;52402;52.670;6.750;2023-07-28T03:56:38;0.40;;;0.40;;
60292;SDS011;52402;52.670;6.750;2023-07-28T03:59:04;0.50;;;0.50;;
60292;SDS011;52402;52.670;6.750;2023-07-28T04:01:30;0.40;;;0.40;;
60292;SDS011;52402;52.670;6.750;2023-07-28T04:03:56;0.40;;;0.40;;
60292;SDS011;52402;52.670;6.750;2023-07-28T04:06:38;0.40;;;0.40;;
60292;SDS011;52402;52.670;6.750;2023-07-28T04:09:08;0.50;;;0.50;;
60292;SDS011;52402;52.670;6.750;2023-07-28T04:11:34;0.40;;;0.40;;
60292;SDS011;52402;52.670;6.750;2023-07-28T04:13:59;0.50;;;0.50;;
60292;SDS011;52402;52.670;6.750;2023-07-28T04:16:25;0.50;;;0.50;;
60292;SDS011;52402;52.670;6.750;2023-07-28T04:18:51;0.40;;;0.40;;
60292;SDS011;52402;52.670;6.750;2023-07-28T04:21:16;0.47;;;0.47;;
60292;SDS011;52402;52.670;6.750;2023-07-28T04:23:42;0.40;;;0.40;;
60292;SDS011;52402;52.670;6.750;2023-07-28T04:26:08;0.40;;;0.40;;
60292;SDS011;52402;52.670;6.750;2023-07-28T04:28:34;0.40;;;0.40;;
60292;SDS011;52402;52.670;6.750;2023-07-28T04:30:59;0.40;;;0.40;;
60292;SDS011;52402;52.670;6.750;2023-07-28T04:33:25;0.40;;;0.40;;
60292;SDS011;52402;52.670;6.750;2023-07-28T04:35:51;0.40;;;0.40;;
60292;SDS011;52402;52.670;6.750;2023-07-28T04:38:16;0.40;;;0.40;;
60292;SDS011;52402;52.670;6.750;2023-07-28T04:40:43;0.47;;;0.47;;
60292;SDS011;52402;52.670;6.750;2023-07-28T04:43:09;0.50;;;0.50;;
60292;SDS011;52402;52.670;6.750;2023-07-28T04:45:35;0.50;;;0.50;;
60292;SDS011;52402;52.670;6.750;2023-07-28T04:48:01;0.50;;;0.50;;
60292;SDS011;52402;52.670;6.750;2023-07-28T04:50:27;0.30;;;0.30;;
60292;SDS011;52402;52.670;6.750;2023-07-28T04:52:54;0.40;;;0.40;;
60292;SDS011;52402;52.670;6.750;2023-07-28T04:55:19;0.40;;;0.40;;
60292;SDS011;52402;52.670;6.750;2023-07-28T04:57:46;0.40;;;0.40;;
60292;SDS011;52402;52.670;6.750;2023-07-28T05:00:12;0.40;;;0.40;;
60292;SDS011;52402;52.670;6.750;2023-07-28T05:02:38;0.40;;;0.40;;
60292;SDS011;52402;52.670;6.750;2023-07-28T05:05:04;0.50;;;0.50;;
60292;SDS011;52402;52.670;6.750;2023-07-28T05:07:30;0.40;;;0.40;;
60292;SDS011;52402;52.670;6.750;2023-07-28T05:09:55;0.40;;;0.40;;
60292;SDS011;52402;52.670;6.750;2023-07-28T05:12:21;0.50;;;0.50;;
60292;SDS011;52402;52.670;6.750;2023-07-28T05:14:47;0.50;;;0.50;;
60292;SDS011;52402;52.670;6.750;2023-07-28T05:17:12;0.40;;;0.40;;
60292;SDS011;52402;52.670;6.750;2023-07-28T05:19:38;0.50;;;0.50;;
60292;SDS011;52402;52.670;6.750;2023-07-28T05:22:04;0.40;;;0.40;;
60292;SDS011;52402;52.670;6.750;2023-07-28T05:24:31;0.50;;;0.50;;
60292;SDS011;52402;52.670;6.750;2023-07-28T05:26:58;0.52;;;0.52;;
60292;SDS011;52402;52.670;6.750;2023-07-28T05:29:23;0.50;;;0.50;;
60292;SDS011;52402;52.670;6.750;2023-07-28T05:31:49;0.50;;;0.50;;
60292;SDS011;52402;52.670;6.750;2023-07-28T05:34:15;0.30;;;0.30;;
60292;SDS011;52402;52.670;6.750;2023-07-28T05:36:40;0.40;;;0.40;;
60292;SDS011;52402;52.670;6.750;2023-07-28T05:39:06;0.40;;;0.40;;
60292;SDS011;52402;52.670;6.750;2023-07-28T05:41:32;0.50;;;0.50;;
60292;SDS011;52402;52.670;6.750;2023-07-28T05:43:58;0.40;;;0.40;;
60292;SDS011;52402;52.670;6.750;2023-07-28T05:46:23;0.47;;;0.47;;
60292;SDS011;52402;52.670;6.750;2023-07-28T05:48:49;0.40;;;0.40;;
60292;SDS011;52402;52.670;6.750;2023-07-28T05:51:14;0.50;;;0.50;;
60292;SDS011;52402;52.670;6.750;2023-07-28T05:53:40;0.40;;;0.40;;
60292;SDS011;52402;52.670;6.750;2023-07-28T05:56:06;0.57;;;0.57;;
60292;SDS011;52402;52.670;6.750;2023-07-28T05:58:32;0.40;;;0.40;;
60292;SDS011;52402;52.670;6.750;2023-07-28T06:00:57;0.52;;;0.52;;
60292;SDS011;52402;52.670;6.750;2023-07-28T06:03:23;0.40;;;0.40;;
60292;SDS011;52402;52.670;6.750;2023-07-28T06:05:49;0.40;;;0.40;;
60292;SDS011;52402;52.670;6.750;2023-07-28T06:08:15;0.43;;;0.43;;
60292;SDS011;52402;52.670;6.750;2023-07-28T06:10:41;0.52;;;0.52;;
60292;SDS011;52402;52.670;6.750;2023-07-28T06:13:07;0.40;;;0.40;;
60292;SDS011;52402;52.670;6.750;2023-07-28T06:15:32;0.50;;;0.50;;
60292;SDS011;52402;52.670;6.750;2023-07-28T06:18:00;0.50;;;0.50;;
60292;SDS011;52402;52.670;6.750;2023-07-28T06:20:27;0.40;;;0.40;;
60292;SDS011;52402;52.670;6.750;2023-07-28T06:22:54;0.50;;;0.50;;
60292;SDS011;52402;52.670;6.750;2023-07-28T06:25:20;0.50;;;0.50;;
60292;SDS011;52402;52.670;6.750;2023-07-28T06:27:46;0.40;;;0.40;;
60292;SDS011;52402;52.670;6.750;2023-07-28T06:30:12;0.43;;;0.43;;
60292;SDS011;52402;52.670;6.750;2023-07-28T06:32:37;0.40;;;0.40;;
60292;SDS011;52402;52.670;6.750;2023-07-28T06:35:03;0.40;;;0.40;;
60292;SDS011;52402;52.670;6.750;2023-07-28T06:37:30;0.40;;;0.40;;
60292;SDS011;52402;52.670;6.750;2023-07-28T06:39:56;0.40;;;0.40;;
60292;SDS011;52402;52.670;6.750;2023-07-28T06:42:22;0.40;;;0.40;;
60292;SDS011;52402;52.670;6.750;2023-07-28T06:44:50;0.43;;;0.43;;
60292;SDS011;52402;52.670;6.750;2023-07-28T06:47:18;0.40;;;0.40;;
60292;SDS011;52402;52.670;6.750;2023-07-28T06:49:45;0.50;;;0.50;;
60292;SDS011;52402;52.670;6.750;2023-07-28T06:52:10;0.50;;;0.50;;
60292;SDS011;52402;52.670;6.750;2023-07-28T06:54:36;0.40;;;0.40;;
60292;SDS011;52402;52.670;6.750;2023-07-28T06:57:02;0.50;;;0.50;;
60292;SDS011;52402;52.670;6.750;2023-07-28T06:59:28;0.45;;;0.45;;
60292;SDS011;52402;52.670;6.750;2023-07-28T07:01:53;0.40;;;0.40;;
60292;SDS011;52402;52.670;6.750;2023-07-28T07:04:19;0.40;;;0.40;;
60292;SDS011;52402;52.670;6.750;2023-07-28T07:06:45;0.40;;;0.40;;
60292;SDS011;52402;52.670;6.750;2023-07-28T07:09:11;0.50;;;0.50;;
60292;SDS011;52402;52.670;6.750;2023-07-28T07:11:39;0.50;;;0.50;;
60292;SDS011;52402;52.670;6.750;2023-07-28T07:14:05;0.50;;;0.50;;
60292;SDS011;52402;52.670;6.750;2023-07-28T07:16:31;0.43;;;0.43;;
60292;SDS011;52402;52.670;6.750;2023-07-28T07:18:57;0.47;;;0.47;;
60292;SDS011;52402;52.670;6.750;2023-07-28T07:21:23;0.40;;;0.40;;
60292;SDS011;52402;52.670;6.750;2023-07-28T07:23:48;0.50;;;0.50;;
60292;SDS011;52402;52.670;6.750;2023-07-28T07:26:14;0.50;;;0.50;;
60292;SDS011;52402;52.670;6.750;2023-07-28T07:28:40;0.40;;;0.40;;
60292;SDS011;52402;52.670;6.750;2023-07-28T07:31:12;0.40;;;0.40;;
60292;SDS011;52402;52.670;6.750;2023-07-28T07:33:39;0.57;;;0.57;;
60292;SDS011;52402;52.670;6.750;2023-07-28T07:36:05;0.50;;;0.50;;
60292;SDS011;52402;52.670;6.750;2023-07-28T07:38:30;0.60;;;0.60;;
60292;SDS011;52402;52.670;6.750;2023-07-28T07:40:56;0.50;;;0.50;;
60292;SDS011;52402;52.670;6.750;2023-07-28T07:43:22;0.40;;;0.40;;
60292;SDS011;52402;52.670;6.750;2023-07-28T07:45:47;0.50;;;0.50;;
60292;SDS011;52402;52.670;6.750;2023-07-28T07:48:15;0.50;;;0.50;;
60292;SDS011;52402;52.670;6.750;2023-07-28T07:50:41;0.50;;;0.50;;
60292;SDS011;52402;52.670;6.750;2023-07-28T07:53:06;0.50;;;0.50;;
60292;SDS011;52402;52.670;6.750;2023-07-28T07:55:35;0.50;;;0.50;;
60292;SDS011;52402;52.670;6.750;2023-07-28T07:58:01;0.50;;;0.50;;
60292;SDS011;52402;52.670;6.750;2023-07-28T08:00:26;0.50;;;0.50;;
60292;SDS011;52402;52.670;6.750;2023-07-28T08:02:52;0.50;;;0.50;;
60292;SDS011;52402;52.670;6.750;2023-07-28T08:05:17;0.50;;;0.50;;
60292;SDS011;52402;52.670;6.750;2023-07-28T08:07:43;0.50;;;0.50;;
60292;SDS011;52402;52.670;6.750;2023-07-28T08:10:09;0.50;;;0.50;;
60292;SDS011;52402;52.670;6.750;2023-07-28T08:12:35;0.50;;;0.50;;
60292;SDS011;52402;52.670;6.750;2023-07-28T08:15:00;0.50;;;0.50;;
60292;SDS011;52402;52.670;6.750;2023-07-28T08:17:26;0.43;;;0.43;;
60292;SDS011;52402;52.670;6.750;2023-07-28T08:19:51;0.50;;;0.50;;
60292;SDS011;52402;52.670;6.750;2023-07-28T08:22:17;0.52;;;0.52;;
60292;SDS011;52402;52.670;6.750;2023-07-28T08:24:43;0.50;;;0.50;;
60292;SDS011;52402;52.670;6.750;2023-07-28T08:27:08;0.40;;;0.40;;
60292;SDS011;52402;52.670;6.750;2023-07-28T08:29:34;0.43;;;0.43;;
60292;SDS011;52402;52.670;6.750;2023-07-28T08:32:00;0.50;;;0.50;;
60292;SDS011;52402;52.670;6.750;2023-07-28T08:34:27;0.40;;;0.40;;
60292;SDS011;52402;52.670;6.750;2023-07-28T08:36:52;0.55;;;0.55;;
60292;SDS011;52402;52.670;6.750;2023-07-28T08:39:18;0.50;;;0.50;;
60292;SDS011;52402;52.670;6.750;2023-07-28T08:41:43;0.50;;;0.50;;
60292;SDS011;52402;52.670;6.750;2023-07-28T08:44:09;0.50;;;0.50;;
60292;SDS011;52402;52.670;6.750;2023-07-28T08:46:35;0.50;;;0.50;;
60292;SDS011;52402;52.670;6.750;2023-07-28T08:49:01;0.45;;;0.45;;
60292;SDS011;52402;52.670;6.750;2023-07-28T08:51:27;0.50;;;0.50;;
60292;SDS011;52402;52.670;6.750;2023-07-28T08:53:52;0.50;;;0.50;;
60292;SDS011;52402;52.670;6.750;2023-07-28T08:56:18;0.50;;;0.50;;
60292;SDS011;52402;52.670;6.750;2023-07-28T08:58:45;0.45;;;0.45;;
60292;SDS011;52402;52.670;6.750;2023-07-28T09:01:11;0.50;;;0.50;;
60292;SDS011;52402;52.670;6.750;2023-07-28T09:03:40;0.47;;;0.47;;
60292;SDS011;52402;52.670;6.750;2023-07-28T09:06:07;0.50;;;0.50;;
60292;SDS011;52402;52.670;6.750;2023-07-28T09:08:36;0.50;;;0.50;;
60292;SDS011;52402;52.670;6.750;2023-07-28T09:11:03;0.50;;;0.50;;
60292;SDS011;52402;52.670;6.750;2023-07-28T09:13:37;0.60;;;0.60;;
60292;SDS011;52402;52.670;6.750;2023-07-28T09:16:17;0.52;;;0.52;;
60292;SDS011;52402;52.670;6.750;2023-07-28T09:18:45;0.45;;;0.45;;
60292;SDS011;52402;52.670;6.750;2023-07-28T09:21:18;0.50;;;0.50;;
60292;SDS011;52402;52.670;6.750;2023-07-28T09:23:46;0.57;;;0.57;;
60292;SDS011;52402;52.670;6.750;2023-07-28T09:26:13;0.60;;;0.60;;
60292;SDS011;52402;52.670;6.750;2023-07-28T09:28:40;0.57;;;0.57;;
60292;SDS011;52402;52.670;6.750;2023-07-28T09:31:06;0.50;;;0.50;;
60292;SDS011;52402;52.670;6.750;2023-07-28T09:33:34;0.57;;;0.57;;
60292;SDS011;52402;52.670;6.750;2023-07-28T09:36:10;0.60;;;0.60;;
60292;SDS011;52402;52.670;6.750;2023-07-28T09:38:38;0.45;;;0.45;;
60292;SDS011;52402;52.670;6.750;2023-07-28T09:41:08;0.65;;;0.65;;
60292;SDS011;52402;52.670;6.750;2023-07-28T09:43:39;0.60;;;0.60;;
60292;SDS011;52402;52.670;6.750;2023-07-28T09:48:32;0.50;;;0.50;;
60292;SDS011;52402;52.670;6.750;2023-07-28T09:51:11;0.60;;;0.60;;
60292;SDS011;52402;52.670;6.750;2023-07-28T09:54:23;0.50;;;0.50;;
60292;SDS011;52402;52.670;6.750;2023-07-28T09:56:37;0.57;;;0.57;;
60292;SDS011;52402;52.670;6.750;2023-07-28T09:59:09;0.60;;;0.60;;
60292;SDS011;52402;52.670;6.750;2023-07-28T10:01:38;0.50;;;0.50;;
60292;SDS011;52402;52.670;6.750;2023-07-28T10:04:04;0.60;;;0.60;;
60292;SDS011;52402;52.670;6.750;2023-07-28T10:06:30;0.57;;;0.57;;
60292;SDS011;52402;52.670;6.750;2023-07-28T10:08:58;0.50;;;0.50;;
60292;SDS011;52402;52.670;6.750;2023-07-28T10:11:24;0.50;;;0.50;;
60292;SDS011;52402;52.670;6.750;2023-07-28T10:13:53;0.50;;;0.50;;
60292;SDS011;52402;52.670;6.750;2023-07-28T10:16:20;0.60;;;0.60;;
60292;SDS011;52402;52.670;6.750;2023-07-28T10:19:04;0.50;;;0.50;;
60292;SDS011;52402;52.670;6.750;2023-07-28T10:21:30;0.60;;;0.60;;
60292;SDS011;52402;52.670;6.750;2023-07-28T10:23:57;0.60;;;0.60;;
60292;SDS011;52402;52.670;6.750;2023-07-28T10:26:36;0.60;;;0.60;;
60292;SDS011;52402;52.670;6.750;2023-07-28T10:29:10;0.70;;;0.70;;
60292;SDS011;52402;52.670;6.750;2023-07-28T10:31:50;0.65;;;0.65;;
60292;SDS011;52402;52.670;6.750;2023-07-28T10:34:19;0.60;;;0.60;;
60292;SDS011;52402;52.670;6.750;2023-07-28T10:36:47;0.80;;;0.80;;
60292;SDS011;52402;52.670;6.750;2023-07-28T10:39:21;0.60;;;0.60;;
60292;SDS011;52402;52.670;6.750;2023-07-28T10:42:06;0.60;;;0.60;;
60292;SDS011;52402;52.670;6.750;2023-07-28T10:44:33;0.75;;;0.75;;
60292;SDS011;52402;52.670;6.750;2023-07-28T10:47:00;0.60;;;0.60;;
60292;SDS011;52402;52.670;6.750;2023-07-28T10:49:26;0.70;;;0.70;;
60292;SDS011;52402;52.670;6.750;2023-07-28T10:51:53;0.60;;;0.60;;
60292;SDS011;52402;52.670;6.750;2023-07-28T10:54:19;0.70;;;0.70;;
60292;SDS011;52402;52.670;6.750;2023-07-28T10:56:48;0.60;;;0.60;;
60292;SDS011;52402;52.670;6.750;2023-07-28T10:59:14;0.50;;;0.50;;
60292;SDS011;52402;52.670;6.750;2023-07-28T11:01:40;0.70;;;0.70;;
60292;SDS011;52402;52.670;6.750;2023-07-28T11:04:08;0.70;;;0.70;;
60292;SDS011;52402;52.670;6.750;2023-07-28T11:06:44;0.80;;;0.80;;
60292;SDS011;52402;52.670;6.750;2023-07-28T11:09:13;0.80;;;0.80;;
60292;SDS011;52402;52.670;6.750;2023-07-28T11:11:40;0.60;;;0.60;;
60292;SDS011;52402;52.670;6.750;2023-07-28T11:14:07;0.70;;;0.70;;
60292;SDS011;52402;52.670;6.750;2023-07-28T11:16:38;0.73;;;0.73;;
60292;SDS011;52402;52.670;6.750;2023-07-28T11:19:09;0.80;;;0.80;;
60292;SDS011;52402;52.670;6.750;2023-07-28T11:21:36;0.63;;;0.63;;
60292;SDS011;52402;52.670;6.750;2023-07-28T11:24:03;0.60;;;0.60;;
60292;SDS011;52402;52.670;6.750;2023-07-28T11:26:29;0.60;;;0.60;;
60292;SDS011;52402;52.670;6.750;2023-07-28T11:28:55;0.70;;;0.70;;
60292;SDS011;52402;52.670;6.750;2023-07-28T11:31:25;0.77;;;0.77;;
60292;SDS011;52402;52.670;6.750;2023-07-28T11:33:51;0.75;;;0.75;;
60292;SDS011;52402;52.670;6.750;2023-07-28T11:36:23;0.60;;;0.60;;
60292;SDS011;52402;52.670;6.750;2023-07-28T11:38:51;0.70;;;0.70;;
60292;SDS011;52402;52.670;6.750;2023-07-28T11:41:22;0.60;;;0.60;;
60292;SDS011;52402;52.670;6.750;2023-07-28T11:43:48;0.55;;;0.55;;
60292;SDS011;52402;52.670;6.750;2023-07-28T11:46:49;0.60;;;0.60;;
60292;SDS011;52402;52.670;6.750;2023-07-28T11:51:47;0.80;;;0.80;;
60292;SDS011;52402;52.670;6.750;2023-07-28T11:54:15;0.60;;;0.60;;
60292;SDS011;52402;52.670;6.750;2023-07-28T11:56:42;0.60;;;0.60;;
60292;SDS011;52402;52.670;6.750;2023-07-28T11:59:09;0.70;;;0.70;;
60292;SDS011;52402;52.670;6.750;2023-07-28T12:01:52;0.70;;;0.70;;
60292;SDS011;52402;52.670;6.750;2023-07-28T12:04:22;0.70;;;0.70;;
60292;SDS011;52402;52.670;6.750;2023-07-28T12:07:10;0.73;;;0.73;;
60292;SDS011;52402;52.670;6.750;2023-07-28T12:12:13;0.70;;;0.70;;
60292;SDS011;52402;52.670;6.750;2023-07-28T12:14:46;0.75;;;0.75;;
60292;SDS011;52402;52.670;6.750;2023-07-28T12:17:22;0.80;;;0.80;;
60292;SDS011;52402;52.670;6.750;2023-07-28T12:22:36;0.70;;;0.70;;
60292;SDS011;52402;52.670;6.750;2023-07-28T12:25:03;0.70;;;0.70;;
60292;SDS011;52402;52.670;6.750;2023-07-28T12:27:30;0.70;;;0.70;;
60292;SDS011;52402;52.670;6.750;2023-07-28T12:29:56;0.70;;;0.70;;
60292;SDS011;52402;52.670;6.750;2023-07-28T12:32:22;0.70;;;0.70;;
60292;SDS011;52402;52.670;6.750;2023-07-28T12:34:48;0.70;;;0.70;;
60292;SDS011;52402;52.670;6.750;2023-07-28T12:37:15;0.70;;;0.70;;
60292;SDS011;52402;52.670;6.750;2023-07-28T12:39:41;0.77;;;0.77;;
60292;SDS011;52402;52.670;6.750;2023-07-28T12:42:07;0.70;;;0.70;;
60292;SDS011;52402;52.670;6.750;2023-07-28T12:44:34;0.70;;;0.70;;
60292;SDS011;52402;52.670;6.750;2023-07-28T12:47:00;0.73;;;0.73;;
60292;SDS011;52402;52.670;6.750;2023-07-28T12:49:26;0.80;;;0.80;;
60292;SDS011;52402;52.670;6.750;2023-07-28T12:51:54;0.65;;;0.65;;
60292;SDS011;52402;52.670;6.750;2023-07-28T12:54:24;0.80;;;0.80;;
60292;SDS011;52402;52.670;6.750;2023-07-28T12:59:21;0.80;;;0.80;;
60292;SDS011;52402;52.670;6.750;2023-07-28T13:01:47;0.88;;;0.88;;
60292;SDS011;52402;52.670;6.750;2023-07-28T13:04:12;0.77;;;0.77;;
60292;SDS011;52402;52.670;6.750;2023-07-28T13:06:38;0.82;;;0.82;;
60292;SDS011;52402;52.670;6.750;2023-07-28T13:09:06;0.90;;;0.90;;
60292;SDS011;52402;52.670;6.750;2023-07-28T13:11:33;0.70;;;0.70;;
60292;SDS011;52402;52.670;6.750;2023-07-28T13:13:58;0.80;;;0.80;;
60292;SDS011;52402;52.670;6.750;2023-07-28T13:16:24;0.82;;;0.82;;
60292;SDS011;52402;52.670;6.750;2023-07-28T13:18:49;0.77;;;0.77;;
60292;SDS011;52402;52.670;6.750;2023-07-28T13:21:16;0.80;;;0.80;;
60292;SDS011;52402;52.670;6.750;2023-07-28T13:23:41;0.80;;;0.80;;
60292;SDS011;52402;52.670;6.750;2023-07-28T13:26:07;0.80;;;0.80;;
60292;SDS011;52402;52.670;6.750;2023-07-28T13:28:33;0.90;;;0.90;;
60292;SDS011;52402;52.670;6.750;2023-07-28T13:31:02;0.80;;;0.80;;
60292;SDS011;52402;52.670;6.750;2023-07-28T13:33:28;0.80;;;0.80;;
60292;SDS011;52402;52.670;6.750;2023-07-28T13:35:53;0.90;;;0.90;;
60292;SDS011;52402;52.670;6.750;2023-07-28T13:38:19;0.90;;;0.90;;
60292;SDS011;52402;52.670;6.750;2023-07-28T13:40:45;0.90;;;0.90;;
60292;SDS011;52402;52.670;6.750;2023-07-28T13:43:10;0.80;;;0.80;;
60292;SDS011;52402;52.670;6.750;2023-07-28T13:45:36;0.90;;;0.90;;
60292;SDS011;52402;52.670;6.750;2023-07-28T13:48:02;0.90;;;0.90;;
60292;SDS011;52402;52.670;6.750;2023-07-28T13:50:28;0.85;;;0.85;;
60292;SDS011;52402;52.670;6.750;2023-07-28T13:52:55;0.90;;;0.90;;
60292;SDS011;52402;52.670;6.750;2023-07-28T13:55:21;0.90;;;0.90;;
60292;SDS011;52402;52.670;6.750;2023-07-28T13:57:47;0.88;;;0.88;;
60292;SDS011;52402;52.670;6.750;2023-07-28T14:00:13;0.80;;;0.80;;
60292;SDS011;52402;52.670;6.750;2023-07-28T14:02:40;1.00;;;1.00;;
60292;SDS011;52402;52.670;6.750;2023-07-28T14:05:06;0.90;;;0.90;;
60292;SDS011;52402;52.670;6.750;2023-07-28T14:07:32;0.90;;;0.90;;
60292;SDS011;52402;52.670;6.750;2023-07-28T14:10:00;0.88;;;0.88;;
60292;SDS011;52402;52.670;6.750;2023-07-28T14:12:26;0.90;;;0.90;;
60292;SDS011;52402;52.670;6.750;2023-07-28T14:14:51;0.82;;;0.82;;
60292;SDS011;52402;52.670;6.750;2023-07-28T14:17:18;0.80;;;0.80;;
60292;SDS011;52402;52.670;6.750;2023-07-28T14:19:44;0.93;;;0.93;;
60292;SDS011;52402;52.670;6.750;2023-07-28T14:22:10;0.88;;;0.88;;
60292;SDS011;52402;52.670;6.750;2023-07-28T14:24:35;0.70;;;0.70;;
60292;SDS011;52402;52.670;6.750;2023-07-28T14:27:01;0.85;;;0.85;;
60292;SDS011;52402;52.670;6.750;2023-07-28T14:29:27;0.63;;;0.63;;
60292;SDS011;52402;52.670;6.750;2023-07-28T14:31:52;0.70;;;0.70;;
60292;SDS011;52402;52.670;6.750;2023-07-28T14:34:18;0.75;;;0.75;;
60292;SDS011;52402;52.670;6.750;2023-07-28T14:36:44;0.90;;;0.90;;
60292;SDS011;52402;52.670;6.750;2023-07-28T14:39:10;0.90;;;0.90;;
60292;SDS011;52402;52.670;6.750;2023-07-28T14:41:36;0.90;;;0.90;;
60292;SDS011;52402;52.670;6.750;2023-07-28T14:44:02;0.63;;;0.63;;
60292;SDS011;52402;52.670;6.750;2023-07-28T14:46:28;0.90;;;0.90;;
60292;SDS011;52402;52.670;6.750;2023-07-28T14:48:54;0.80;;;0.80;;
60292;SDS011;52402;52.670;6.750;2023-07-28T14:51:20;0.70;;;0.70;;
60292;SDS011;52402;52.670;6.750;2023-07-28T14:53:46;0.90;;;0.90;;
60292;SDS011;52402;52.670;6.750;2023-07-28T14:56:12;0.70;;;0.70;;
60292;SDS011;52402;52.670;6.750;2023-07-28T14:58:39;0.80;;;0.80;;
60292;SDS011;52402;52.670;6.750;2023-07-28T15:01:09;0.90;;;0.90;;